Time;durP1;ratioP1;P1;durP2;ratioP2;P2;SDS_P1;SDS_P2;PMS_P1;PMS_P2;Temp;Humidity;BMP_temperature;BMP_pressure;BME280_temperature;BME280_humidity;BME280_pressure;Samples;Min_cycle;Max_cycle;Signal;HPM_P1;HPM_P2
2023/04/28 00:02:02;;;;;;;14.85;10.75;;;7.40;99.90;;;;;;7371223;19;20025;-65
2023/04/28 00:04:28;;;;;;;13.88;11.38;;;7.40;99.90;;;;;;7370095;19;20525;-65
2023/04/28 00:06:54;;;;;;;15.40;10.82;;;7.40;99.90;;;;;;7371737;19;20014;-65
2023/04/28 00:09:21;;;;;;;15.40;11.55;;;7.40;99.90;;;;;;7369355;19;20062;-65
2023/04/28 00:11:47;;;;;;;11.38;10.05;;;7.40;99.90;;;;;;7371860;19;20019;-65
2023/04/28 00:14:13;;;;;;;12.55;10.85;;;7.30;99.90;;;;;;7368587;19;20022;-65
2023/04/28 00:16:40;;;;;;;14.48;12.00;;;7.30;99.90;;;;;;7371883;19;20054;-65
2023/04/28 00:19:06;;;;;;;13.50;11.32;;;7.40;99.90;;;;;;7371474;19;20018;-65
2023/04/28 00:21:32;;;;;;;13.48;10.15;;;7.30;99.90;;;;;;7370802;19;20094;-65
2023/04/28 00:23:59;;;;;;;12.43;10.77;;;7.30;99.90;;;;;;7367185;19;20128;-65
2023/04/28 00:26:25;;;;;;;17.05;12.07;;;7.30;99.90;;;;;;7371326;19;20014;-65
2023/04/28 00:28:51;;;;;;;14.52;11.65;;;7.30;99.90;;;;;;7370443;19;20027;-65
2023/04/28 00:31:18;;;;;;;13.65;10.57;;;7.30;99.90;;;;;;7372078;19;20052;-63
2023/04/28 00:33:44;;;;;;;13.93;11.43;;;7.20;99.90;;;;;;7366862;19;20051;-65
2023/04/28 00:36:10;;;;;;;13.98;11.73;;;7.20;99.90;;;;;;7371700;19;20028;-64
2023/04/28 00:38:37;;;;;;;15.23;10.77;;;7.30;99.90;;;;;;7367376;19;20014;-64
2023/04/28 00:41:03;;;;;;;14.52;10.65;;;7.20;99.90;;;;;;7368525;19;20018;-65
2023/04/28 00:43:29;;;;;;;13.35;10.27;;;7.20;99.90;;;;;;7365843;19;20022;-65
2023/04/28 00:45:56;;;;;;;13.82;11.20;;;7.20;99.90;;;;;;7369940;19;20023;-63
2023/04/28 00:48:23;;;;;;;15.13;10.20;;;7.20;99.90;;;;;;7367492;19;20450;-62
2023/04/28 00:50:50;;;;;;;18.10;12.77;;;7.20;99.90;;;;;;7371111;19;20078;-65
2023/04/28 00:53:16;;;;;;;14.52;11.73;;;7.10;99.90;;;;;;7376319;19;20018;-62
2023/04/28 00:55:44;;;;;;;15.73;12.48;;;7.10;99.90;;;;;;7378541;19;20018;-64
2023/04/28 00:58:11;;;;;;;14.63;9.52;;;7.10;99.90;;;;;;7375484;19;20025;-62
2023/04/28 01:00:37;;;;;;;16.20;10.55;;;7.10;99.90;;;;;;7378073;19;20022;-62
2023/04/28 01:03:04;;;;;;;13.15;10.93;;;7.00;99.90;;;;;;7377203;19;20028;-62
2023/04/28 01:05:34;;;;;;;16.15;12.90;;;7.10;99.90;;;;;;7373953;19;21298;-63
2023/04/28 01:08:01;;;;;;;14.95;12.45;;;7.10;99.90;;;;;;7377629;19;20014;-63
2023/04/28 01:10:28;;;;;;;14.93;10.70;;;7.10;99.90;;;;;;7374849;19;20014;-62
2023/04/28 01:12:55;;;;;;;16.45;11.60;;;7.10;99.90;;;;;;7373925;19;20026;-62
2023/04/28 01:15:21;;;;;;;15.65;11.63;;;7.10;99.90;;;;;;7374999;19;20014;-62
2023/04/28 01:17:50;;;;;;;14.05;11.30;;;7.10;99.90;;;;;;7375492;19;20455;-62
2023/04/28 01:20:16;;;;;;;16.70;12.35;;;7.10;99.90;;;;;;7373102;19;20048;-62
2023/04/28 01:22:43;;;;;;;15.15;11.20;;;7.10;99.90;;;;;;7374411;19;20103;-62
2023/04/28 01:25:09;;;;;;;18.08;12.95;;;7.10;99.90;;;;;;7371256;19;20022;-62
2023/04/28 01:27:35;;;;;;;14.85;11.85;;;7.10;99.90;;;;;;7373180;19;20025;-65
2023/04/28 01:30:02;;;;;;;15.80;13.10;;;7.10;99.90;;;;;;7374667;19;20078;-62
2023/04/28 01:32:28;;;;;;;15.50;12.52;;;7.10;99.90;;;;;;7373525;19;20037;-62
2023/04/28 01:34:55;;;;;;;17.02;11.57;;;7.10;99.90;;;;;;7373438;19;20058;-63
2023/04/28 01:37:21;;;;;;;16.38;12.38;;;7.00;99.90;;;;;;7373108;19;20685;-62
2023/04/28 01:39:47;;;;;;;15.52;13.32;;;7.00;99.90;;;;;;7371945;19;20058;-62
2023/04/28 01:42:14;;;;;;;18.02;13.25;;;7.00;99.90;;;;;;7372622;19;20018;-62
2023/04/28 01:44:40;;;;;;;19.55;12.95;;;7.00;99.90;;;;;;7370713;19;20018;-62
2023/04/28 01:47:06;;;;;;;19.67;13.85;;;7.00;99.90;;;;;;7371421;19;20015;-65
2023/04/28 01:49:34;;;;;;;16.38;13.55;;;7.00;99.90;;;;;;7374562;19;20481;-65
2023/04/28 01:52:01;;;;;;;18.83;14.55;;;7.00;99.90;;;;;;7372629;19;20117;-64
2023/04/28 01:54:27;;;;;;;19.40;14.02;;;7.00;99.90;;;;;;7372143;19;20374;-65
2023/04/28 01:56:53;;;;;;;18.75;14.10;;;7.00;99.90;;;;;;7367168;19;20576;-65
2023/04/28 01:59:20;;;;;;;14.02;12.55;;;7.00;99.90;;;;;;7374191;19;20022;-62
2023/04/28 02:01:47;;;;;;;20.73;14.00;;;7.00;99.90;;;;;;7373888;19;20022;-62
2023/04/28 02:04:13;;;;;;;16.35;13.95;;;7.00;99.90;;;;;;7369843;19;20021;-62
2023/04/28 02:06:40;;;;;;;16.27;13.38;;;7.00;99.90;;;;;;7373222;19;20062;-62
2023/04/28 02:09:07;;;;;;;17.25;13.93;;;7.00;99.90;;;;;;7369987;19;20880;-62
2023/04/28 02:11:33;;;;;;;16.85;13.70;;;7.00;99.90;;;;;;7373961;19;20395;-65
2023/04/28 02:13:59;;;;;;;18.17;13.75;;;7.00;99.90;;;;;;7371273;19;20018;-65
2023/04/28 02:16:25;;;;;;;17.75;14.98;;;7.00;99.90;;;;;;7373985;19;20029;-62
2023/04/28 02:18:51;;;;;;;18.30;15.23;;;7.10;99.90;;;;;;7369729;19;20033;-63
2023/04/28 02:21:18;;;;;;;15.85;13.82;;;7.00;99.90;;;;;;7375706;19;20660;-65
2023/04/28 02:23:44;;;;;;;19.88;15.15;;;7.10;99.90;;;;;;7372377;19;20014;-65
2023/04/28 02:26:11;;;;;;;20.33;15.10;;;7.10;99.90;;;;;;7369561;19;20493;-65
2023/04/28 02:28:37;;;;;;;16.08;12.80;;;7.10;99.90;;;;;;7374611;19;20422;-65
2023/04/28 02:31:09;;;;;;;21.00;14.27;;;7.10;99.90;;;;;;7372302;19;20446;-62
2023/04/28 02:33:37;;;;;;;18.95;13.27;;;7.00;99.90;;;;;;7370946;19;20034;-62
2023/04/28 02:36:05;;;;;;;18.55;14.43;;;7.10;99.90;;;;;;7370498;19;20026;-64
2023/04/28 02:38:31;;;;;;;20.95;14.65;;;7.00;99.90;;;;;;7372260;19;20021;-64
2023/04/28 02:41:06;;;;;;;20.48;14.77;;;7.00;99.90;;;;;;7370191;19;20040;-65
2023/04/28 02:43:33;;;;;;;18.25;14.15;;;7.00;99.90;;;;;;7372941;19;20046;-65
2023/04/28 02:45:59;;;;;;;21.50;15.40;;;7.00;99.90;;;;;;7368349;19;20015;-65
2023/04/28 02:48:26;;;;;;;19.40;15.55;;;6.90;99.90;;;;;;7372028;19;20015;-65
2023/04/28 02:50:53;;;;;;;19.10;15.95;;;6.90;99.90;;;;;;7371873;19;20018;-62
2023/04/28 02:53:20;;;;;;;20.45;15.43;;;6.80;99.90;;;;;;7371759;19;20023;-62
2023/04/28 02:55:47;;;;;;;17.30;14.90;;;6.80;99.90;;;;;;7370564;19;20800;-62
2023/04/28 02:58:16;;;;;;;19.75;14.75;;;6.80;99.90;;;;;;7365664;19;20431;-62
2023/04/28 03:00:43;;;;;;;17.63;15.00;;;6.80;99.90;;;;;;7373199;19;20057;-63
2023/04/28 03:03:09;;;;;;;17.65;14.98;;;6.80;99.90;;;;;;7370375;19;20382;-62
2023/04/28 03:05:36;;;;;;;18.58;15.27;;;6.70;99.90;;;;;;7370908;19;20010;-62
2023/04/28 03:08:02;;;;;;;16.90;14.85;;;6.70;99.90;;;;;;7370466;19;20026;-62
2023/04/28 03:10:29;;;;;;;23.05;16.50;;;6.70;99.90;;;;;;7371844;19;20038;-62
2023/04/28 03:12:55;;;;;;;17.45;14.13;;;6.70;99.90;;;;;;7369526;19;20014;-62
2023/04/28 03:15:22;;;;;;;19.52;15.88;;;6.70;99.90;;;;;;7368285;19;20010;-62
2023/04/28 03:17:48;;;;;;;20.35;15.18;;;6.70;99.90;;;;;;7371221;19;20026;-62
2023/04/28 03:20:15;;;;;;;20.60;16.50;;;6.70;99.90;;;;;;7371586;19;20058;-62
2023/04/28 03:22:41;;;;;;;18.77;14.75;;;6.60;99.90;;;;;;7369081;19;20014;-62
2023/04/28 03:25:07;;;;;;;19.35;14.48;;;6.60;99.90;;;;;;7368885;19;20618;-62
2023/04/28 03:27:40;;;;;;;17.55;14.70;;;6.60;99.90;;;;;;7371633;19;20094;-63
2023/04/28 03:30:07;;;;;;;18.73;15.07;;;6.60;99.90;;;;;;7370465;19;20026;-62
2023/04/28 03:32:33;;;;;;;21.33;13.88;;;6.70;99.90;;;;;;7371634;19;20303;-65
2023/04/28 03:34:59;;;;;;;19.38;12.20;;;6.70;99.90;;;;;;7370895;19;20019;-65
2023/04/28 03:37:26;;;;;;;18.63;14.10;;;6.70;99.90;;;;;;7370794;19;20022;-62
2023/04/28 03:39:52;;;;;;;18.77;12.57;;;6.70;99.90;;;;;;7372659;19;21510;-62
2023/04/28 03:42:18;;;;;;;17.73;13.35;;;6.70;99.90;;;;;;7372767;19;20030;-65
2023/04/28 03:45:08;;;;;;;23.20;14.27;;;6.70;99.90;;;;;;7370987;19;20023;-64
2023/04/28 03:47:35;;;;;;;18.75;14.23;;;6.70;99.90;;;;;;7368512;19;20010;-64
2023/04/28 03:50:01;;;;;;;20.13;15.32;;;6.70;99.90;;;;;;7371443;19;20044;-65
2023/04/28 03:52:27;;;;;;;19.35;15.43;;;6.80;99.90;;;;;;7372221;19;20029;-64
2023/04/28 03:54:54;;;;;;;22.52;15.77;;;6.70;99.90;;;;;;7368700;19;20402;-62
2023/04/28 03:57:21;;;;;;;18.17;14.43;;;6.70;99.90;;;;;;7369670;19;20014;-63
2023/04/28 03:59:47;;;;;;;19.05;15.60;;;6.70;99.90;;;;;;7368870;19;20092;-62
2023/04/28 04:02:13;;;;;;;21.58;13.95;;;6.70;99.90;;;;;;7370722;19;20027;-64
2023/04/28 04:04:39;;;;;;;19.20;13.95;;;6.70;99.90;;;;;;7366385;19;20345;-61
2023/04/28 04:07:06;;;;;;;21.92;14.00;;;6.70;99.90;;;;;;7368413;19;20591;-62
2023/04/28 04:09:33;;;;;;;20.25;15.50;;;6.70;99.90;;;;;;7368240;19;20642;-62
2023/04/28 04:12:00;;;;;;;21.17;15.57;;;6.70;99.90;;;;;;7369876;19;20019;-62
2023/04/28 04:14:26;;;;;;;23.08;16.20;;;6.70;99.90;;;;;;7371069;19;20015;-61
2023/04/28 04:16:54;;;;;;;21.80;15.65;;;6.80;99.90;;;;;;7368450;19;20026;-61
2023/04/28 04:19:22;;;;;;;22.95;16.63;;;6.70;99.90;;;;;;7370094;19;20018;-61
2023/04/28 04:21:52;;;;;;;;;;;6.70;99.90;;;;;;7371797;19;20111;-61
2023/04/28 04:24:18;;;;;;;19.27;14.48;;;6.70;99.90;;;;;;7367266;19;20252;-64
2023/04/28 04:26:45;;;;;;;21.95;15.55;;;6.70;99.90;;;;;;7366807;19;20030;-64
2023/04/28 04:29:28;;;;;;;20.17;15.30;;;6.70;99.90;;;;;;7369049;19;20034;-64
2023/04/28 04:31:54;;;;;;;23.83;16.52;;;6.70;99.90;;;;;;7376081;19;20086;-64
2023/04/28 04:34:21;;;;;;;20.35;17.48;;;6.70;99.90;;;;;;7375816;19;20576;-64
2023/04/28 04:36:47;;;;;;;23.60;16.70;;;6.70;99.90;;;;;;7376190;19;20032;-64
2023/04/28 04:39:14;;;;;;;21.08;15.85;;;6.70;99.90;;;;;;7377053;19;20014;-64
2023/04/28 04:41:41;;;;;;;20.15;16.13;;;6.80;99.90;;;;;;7375521;19;20529;-64
2023/04/28 04:44:31;;;;;;;20.55;15.50;;;6.80;99.90;;;;;;7372514;19;20018;-64
2023/04/28 04:46:58;;;;;;;19.92;14.50;;;6.80;99.90;;;;;;7374693;19;20767;-61
2023/04/28 04:49:25;;;;;;;21.83;16.20;;;6.80;99.90;;;;;;7374890;19;20023;-62
2023/04/28 04:51:51;;;;;;;22.48;15.88;;;6.90;99.90;;;;;;7372151;19;20051;-62
2023/04/28 04:54:18;;;;;;;19.83;15.57;;;6.90;99.90;;;;;;7372191;19;20022;-62
2023/04/28 04:56:44;;;;;;;20.85;15.15;;;6.90;99.90;;;;;;7368752;19;20352;-62
2023/04/28 04:59:14;;;;;;;22.33;16.23;;;6.90;99.90;;;;;;7375241;19;20054;-62
2023/04/28 05:01:54;;;;;;;20.35;14.52;;;6.90;99.90;;;;;;7371481;19;20373;-62
2023/04/28 05:04:20;;;;;;;18.98;15.95;;;6.90;99.90;;;;;;7373060;19;20018;-62
2023/04/28 05:06:47;;;;;;;21.38;15.85;;;6.90;99.90;;;;;;7373494;19;20861;-63
2023/04/28 05:09:14;;;;;;;18.98;15.75;;;6.90;99.90;;;;;;7373718;19;20021;-63
2023/04/28 05:11:40;;;;;;;20.15;15.35;;;6.90;99.90;;;;;;7373449;19;20652;-63
2023/04/28 05:14:06;;;;;;;20.38;13.65;;;7.00;99.90;;;;;;7375293;19;20022;-62
2023/04/28 05:16:33;;;;;;;20.20;15.82;;;7.00;99.90;;;;;;7373127;19;20015;-63
2023/04/28 05:19:09;;;;;;;19.45;14.75;;;7.10;99.90;;;;;;7375039;19;20050;-63
2023/04/28 05:21:35;;;;;;;18.08;15.05;;;7.10;99.90;;;;;;7373034;19;20018;-64
2023/04/28 05:24:02;;;;;;;21.00;14.77;;;7.20;99.90;;;;;;7375525;19;20019;-63
2023/04/28 05:26:29;;;;;;;20.23;14.75;;;7.20;99.90;;;;;;7374297;19;20393;-63
2023/04/28 05:28:59;;;;;;;18.55;15.00;;;7.30;99.90;;;;;;7372386;19;20014;-63
2023/04/28 05:31:26;;;;;;;21.05;14.57;;;7.40;99.90;;;;;;7371363;19;20670;-64
2023/04/28 05:33:53;;;;;;;17.17;13.70;;;7.40;99.90;;;;;;7372672;19;20033;-64
2023/04/28 05:36:20;;;;;;;17.23;14.15;;;7.50;99.90;;;;;;7372021;19;20399;-63
2023/04/28 05:38:47;;;;;;;20.00;14.23;;;7.50;99.90;;;;;;7370374;19;20011;-63
2023/04/28 05:41:14;;;;;;;20.88;14.68;;;7.50;99.90;;;;;;7370335;19;20018;-63
2023/04/28 05:43:40;;;;;;;16.67;13.20;;;7.50;99.90;;;;;;7367318;19;20134;-62
2023/04/28 05:46:07;;;;;;;18.02;12.55;;;7.50;99.90;;;;;;7370276;19;20607;-62
2023/04/28 05:48:36;;;;;;;15.23;12.73;;;7.50;99.90;;;;;;7369168;19;20045;-64
2023/04/28 05:51:03;;;;;;;15.68;13.05;;;7.50;99.90;;;;;;7375667;19;20374;-63
2023/04/28 05:53:29;;;;;;;15.32;12.93;;;7.60;99.90;;;;;;7373726;19;20035;-63
2023/04/28 05:55:56;;;;;;;21.48;13.27;;;7.60;99.90;;;;;;7376418;19;20033;-64
2023/04/28 05:58:23;;;;;;;18.23;13.85;;;7.60;99.90;;;;;;7375606;19;20017;-64
2023/04/28 06:00:49;;;;;;;21.92;15.68;;;7.60;99.90;;;;;;7375208;19;20011;-63
2023/04/28 06:03:17;;;;;;;23.55;17.02;;;7.60;99.90;;;;;;7373318;19;20078;-63
2023/04/28 06:05:45;;;;;;;18.83;15.32;;;7.60;99.90;;;;;;7375192;19;20327;-62
2023/04/28 06:08:12;;;;;;;21.58;15.02;;;7.60;99.90;;;;;;7370342;19;21464;-62
2023/04/28 06:10:40;;;;;;;20.17;15.75;;;7.70;99.90;;;;;;7373914;19;20063;-63
2023/04/28 06:13:06;;;;;;;17.23;13.32;;;7.70;99.90;;;;;;7373298;19;20128;-63
2023/04/28 06:15:32;;;;;;;22.40;15.75;;;7.70;99.90;;;;;;7374895;19;20591;-63
2023/04/28 06:17:59;;;;;;;19.98;14.88;;;7.60;99.90;;;;;;7374333;19;20025;-63
2023/04/28 06:20:26;;;;;;;21.30;15.68;;;7.70;99.90;;;;;;7375943;19;20124;-63
2023/04/28 06:22:53;;;;;;;17.05;14.88;;;7.60;99.90;;;;;;7375692;19;20017;-63
2023/04/28 06:25:20;;;;;;;18.48;14.70;;;7.60;99.90;;;;;;7370421;19;20014;-62
2023/04/28 06:27:46;;;;;;;21.15;14.88;;;7.60;99.90;;;;;;7367340;19;20025;-64
2023/04/28 06:30:18;;;;;;;19.70;15.93;;;7.50;99.90;;;;;;7370897;19;20014;-62
2023/04/28 06:32:45;;;;;;;23.60;14.98;;;7.60;99.90;;;;;;7369456;19;20014;-64
2023/04/28 06:35:11;;;;;;;17.67;14.10;;;7.50;99.90;;;;;;7374028;19;20019;-64
2023/04/28 06:37:38;;;;;;;19.08;13.75;;;7.50;99.90;;;;;;7373788;19;20030;-62
2023/04/28 06:40:06;;;;;;;23.02;17.25;;;7.50;99.90;;;;;;7372845;19;20026;-64
2023/04/28 06:42:33;;;;;;;18.58;15.48;;;7.50;99.90;;;;;;7373626;19;20022;-64
2023/04/28 06:45:08;;;;;;;18.05;14.57;;;7.50;99.90;;;;;;7372898;19;20017;-64
2023/04/28 06:47:39;;;;;;;18.20;14.73;;;7.50;99.90;;;;;;7371753;19;20769;-65
2023/04/28 06:50:08;;;;;;;20.50;14.87;;;7.50;99.90;;;;;;7374080;19;20021;-62
2023/04/28 06:52:37;;;;;;;20.10;14.60;;;7.60;99.90;;;;;;7370186;19;20024;-64
2023/04/28 06:55:08;;;;;;;17.70;13.95;;;7.60;99.90;;;;;;7375205;19;20101;-64
2023/04/28 06:57:36;;;;;;;19.80;14.80;;;7.60;99.90;;;;;;7370048;19;20035;-62
2023/04/28 07:00:04;;;;;;;18.20;15.70;;;7.60;99.90;;;;;;7372089;19;20038;-64
2023/04/28 07:02:30;;;;;;;17.75;14.75;;;7.70;99.90;;;;;;7371701;19;20014;-62
2023/04/28 07:04:57;;;;;;;17.05;13.60;;;7.70;99.90;;;;;;7371376;19;20019;-62
2023/04/28 07:07:23;;;;;;;16.20;14.02;;;7.80;99.90;;;;;;7372117;19;20039;-62
2023/04/28 07:09:52;;;;;;;20.15;13.65;;;7.90;99.90;;;;;;7373810;19;20039;-65
2023/04/28 07:12:23;;;;;;;17.92;13.00;;;7.90;99.90;;;;;;7372874;19;20054;-64
2023/04/28 07:14:50;;;;;;;23.70;15.07;;;8.10;99.90;;;;;;7373964;19;20023;-64
2023/04/28 07:17:17;;;;;;;19.20;13.90;;;8.10;99.90;;;;;;7372084;19;20022;-63
2023/04/28 07:19:43;;;;;;;17.13;13.80;;;8.20;99.90;;;;;;7371026;19;20612;-64
2023/04/28 07:22:09;;;;;;;22.90;15.45;;;8.30;99.90;;;;;;7371952;19;20378;-64
2023/04/28 07:24:36;;;;;;;17.85;15.38;;;8.40;99.90;;;;;;7371932;19;20030;-62
2023/04/28 07:27:02;;;;;;;17.48;14.05;;;8.50;99.90;;;;;;7374237;19;20019;-63
2023/04/28 07:29:32;;;;;;;18.38;12.75;;;8.60;99.90;;;;;;7372836;19;20482;-64
2023/04/28 07:32:00;;;;;;;17.02;12.68;;;8.60;99.90;;;;;;7370475;19;20015;-65
2023/04/28 07:34:27;;;;;;;15.15;13.18;;;8.70;99.90;;;;;;7371646;19;20014;-65
2023/04/28 07:36:53;;;;;;;16.67;11.80;;;8.70;99.90;;;;;;7372589;19;20070;-64
2023/04/28 07:39:20;;;;;;;18.52;13.55;;;8.70;99.90;;;;;;7372312;19;20030;-65
2023/04/28 07:41:46;;;;;;;18.70;13.70;;;8.70;99.90;;;;;;7371352;19;20981;-64
2023/04/28 07:44:13;;;;;;;15.70;12.95;;;8.80;99.90;;;;;;7367399;19;20019;-65
2023/04/28 07:46:39;;;;;;;19.35;16.48;;;8.90;99.90;;;;;;7364447;19;20022;-66
2023/04/28 07:49:07;;;;;;;15.05;12.43;;;9.00;99.90;;;;;;7368095;19;20015;-65
2023/04/28 07:51:33;;;;;;;17.73;12.13;;;9.10;99.90;;;;;;7367599;19;20029;-65
2023/04/28 07:54:00;;;;;;;16.92;12.55;;;9.20;99.90;;;;;;7372030;19;20110;-65
2023/04/28 07:56:26;;;;;;;16.80;12.90;;;9.30;99.90;;;;;;7370578;19;20718;-62
2023/04/28 07:58:53;;;;;;;15.75;12.40;;;9.40;99.90;;;;;;7372698;19;20800;-69
2023/04/28 08:01:19;;;;;;;15.15;12.45;;;9.50;99.90;;;;;;7378452;19;20025;-61
2023/04/28 08:03:49;;;;;;;14.35;10.95;;;9.60;99.90;;;;;;7378911;19;20037;-62
2023/04/28 08:06:15;;;;;;;16.48;13.02;;;9.70;99.90;;;;;;7376827;19;20022;-67
2023/04/28 08:08:42;;;;;;;14.27;11.90;;;9.80;99.90;;;;;;7383079;19;20023;-67
2023/04/28 08:11:08;;;;;;;12.88;10.57;;;9.90;99.90;;;;;;7378592;19;20033;-61
2023/04/28 08:13:36;;;;;;;15.52;10.55;;;9.80;99.90;;;;;;7377856;19;20015;-61
2023/04/28 08:16:02;;;;;;;16.80;11.65;;;9.90;99.90;;;;;;7378161;19;20030;-61
2023/04/28 08:18:29;;;;;;;12.23;10.85;;;9.90;99.90;;;;;;7379495;19;20022;-61
2023/04/28 08:20:55;;;;;;;13.82;11.50;;;10.10;99.90;;;;;;7378319;19;20022;-62
2023/04/28 08:23:22;;;;;;;15.88;12.15;;;10.20;99.90;;;;;;7372855;19;20030;-62
2023/04/28 08:25:49;;;;;;;14.73;11.40;;;10.40;99.90;;;;;;7376769;19;20030;-62
2023/04/28 08:28:16;;;;;;;12.30;10.75;;;10.40;99.90;;;;;;7376879;19;20019;-62
2023/04/28 08:30:45;;;;;;;13.35;10.50;;;10.50;99.90;;;;;;7376647;19;20386;-62
2023/04/28 08:33:15;;;;;;;12.52;10.82;;;10.60;99.90;;;;;;7374291;19;20484;-69
2023/04/28 08:35:42;;;;;;;13.75;10.80;;;10.50;99.90;;;;;;7380525;19;20049;-69
2023/04/28 08:38:14;;;;;;;12.23;10.80;;;10.50;99.90;;;;;;7379309;19;20045;-68
2023/04/28 08:40:41;;;;;;;14.13;10.35;;;10.40;99.90;;;;;;7378463;19;20018;-69
2023/04/28 08:43:09;;;;;;;12.48;10.70;;;10.40;99.90;;;;;;7375663;19;20015;-62
2023/04/28 08:45:41;;;;;;;15.18;12.38;;;10.30;99.90;;;;;;7374607;19;20101;-62
2023/04/28 08:48:26;;;;;;;13.25;11.25;;;10.40;99.90;;;;;;7377912;19;20018;-62
2023/04/28 08:50:53;;;;;;;18.33;11.38;;;10.40;99.90;;;;;;7376769;19;21057;-61
2023/04/28 08:53:27;;;;;;;12.75;11.20;;;10.40;99.90;;;;;;7373281;19;20506;-68
2023/04/28 08:55:55;;;;;;;17.38;12.98;;;10.50;99.90;;;;;;7378730;19;20032;-62
2023/04/28 08:58:26;;;;;;;14.10;11.50;;;10.50;99.90;;;;;;7374693;19;20824;-62
2023/04/28 09:00:53;;;;;;;13.27;11.48;;;10.50;99.90;;;;;;7374355;19;20050;-66
2023/04/28 09:03:20;;;;;;;17.30;12.38;;;10.60;99.90;;;;;;7373329;19;20015;-66
2023/04/28 09:05:47;;;;;;;16.48;12.38;;;10.70;99.90;;;;;;7372314;19;20053;-64
2023/04/28 09:08:14;;;;;;;12.75;11.32;;;10.90;99.90;;;;;;7373974;19;20055;-66
2023/04/28 09:10:40;;;;;;;19.95;11.98;;;11.10;99.90;;;;;;7376585;19;20018;-65
2023/04/28 09:13:07;;;;;;;15.57;12.23;;;11.50;99.90;;;;;;7371133;19;20026;-65
2023/04/28 09:15:36;;;;;;;14.57;11.60;;;12.10;99.90;;;;;;7375102;19;20513;-64
2023/04/28 09:18:05;;;;;;;15.43;10.40;;;12.30;99.90;;;;;;7374362;19;20054;-64
2023/04/28 09:20:36;;;;;;;13.95;10.18;;;12.20;99.90;;;;;;7374066;19;20022;-61
2023/04/28 09:23:16;;;;;;;12.40;10.70;;;12.00;99.90;;;;;;7375730;19;20015;-62
2023/04/28 09:25:58;;;;;;;13.77;10.57;;;12.20;99.90;;;;;;7376541;19;20030;-62
2023/04/28 09:28:25;;;;;;;16.75;11.23;;;12.20;99.90;;;;;;7372394;19;20019;-62
2023/04/28 09:30:51;;;;;;;15.18;10.43;;;12.40;99.90;;;;;;7377026;19;20784;-61
2023/04/28 09:33:21;;;;;;;16.38;11.07;;;12.50;99.90;;;;;;7373768;19;20057;-62
2023/04/28 09:35:48;;;;;;;13.60;11.10;;;12.60;99.90;;;;;;7373869;19;20033;-61
2023/04/28 09:38:15;;;;;;;14.38;10.98;;;12.60;99.90;;;;;;7371725;19;20023;-64
2023/04/28 09:40:59;;;;;;;12.38;10.95;;;12.50;99.90;;;;;;7375043;19;20506;-62
2023/04/28 09:43:31;;;;;;;17.45;11.38;;;12.70;99.90;;;;;;7372874;19;20025;-62
2023/04/28 09:46:01;;;;;;;;;;;12.70;99.90;;;;;;7377094;19;20346;-62
2023/04/28 09:48:37;;;;;;;17.05;10.88;;;12.70;99.90;;;;;;7368388;19;19922;-64
2023/04/28 09:51:06;;;;;;;12.52;10.88;;;12.90;99.90;;;;;;7373383;19;20025;-63
2023/04/28 09:53:34;;;;;;;12.48;10.15;;;13.20;99.90;;;;;;7374851;19;20029;-62
2023/04/28 09:56:03;;;;;;;14.13;11.00;;;13.70;99.90;;;;;;7377319;19;20029;-65
2023/04/28 09:58:31;;;;;;;14.07;10.23;;;14.60;99.90;;;;;;7372918;19;20018;-65
2023/04/28 10:00:59;;;;;;;10.45;9.32;;;15.30;99.90;;;;;;7375121;19;20022;-62
2023/04/28 10:03:28;;;;;;;11.20;9.50;;;15.40;99.90;;;;;;7373861;19;20014;-63
2023/04/28 10:05:56;;;;;;;10.98;9.85;;;15.60;99.90;;;;;;7377528;19;20025;-62
2023/04/28 10:08:25;;;;;;;10.88;9.30;;;15.70;99.90;;;;;;7376700;19;20453;-62
2023/04/28 10:10:53;;;;;;;12.48;8.98;;;15.60;99.90;;;;;;7372887;19;20486;-62
2023/04/28 10:13:21;;;;;;;10.80;8.95;;;15.30;99.90;;;;;;7375155;19;20018;-65
2023/04/28 10:15:54;;;;;;;10.05;9.05;;;15.00;99.90;;;;;;7369978;19;20109;-65
2023/04/28 10:18:22;;;;;;;10.60;9.25;;;14.70;99.90;;;;;;7373980;19;20021;-64
2023/04/28 10:20:56;;;;;;;13.20;10.07;;;14.40;99.90;;;;;;7373196;19;20026;-62
2023/04/28 10:23:34;;;;;;;12.38;10.50;;;14.40;99.90;;;;;;7367994;19;20022;-65
2023/04/28 10:26:02;;;;;;;14.90;10.25;;;14.20;99.90;;;;;;7369473;19;20033;-65
2023/04/28 10:28:29;;;;;;;11.18;9.32;;;14.10;99.90;;;;;;7370129;19;20018;-62
2023/04/28 10:31:11;;;;;;;11.93;10.18;;;14.10;99.90;;;;;;7371872;19;20014;-62
2023/04/28 10:33:39;;;;;;;12.43;9.80;;;13.90;99.90;;;;;;7370884;19;20026;-64
2023/04/28 10:36:07;;;;;;;12.48;10.15;;;13.90;99.90;;;;;;7374000;19;20018;-63
2023/04/28 10:38:35;;;;;;;12.07;10.23;;;13.90;99.90;;;;;;7371999;19;20026;-62
2023/04/28 10:41:02;;;;;;;13.13;10.45;;;14.10;99.90;;;;;;7370344;19;20059;-62
2023/04/28 10:43:29;;;;;;;12.40;9.98;;;14.30;99.90;;;;;;7371107;19;20022;-64
2023/04/28 10:46:02;;;;;;;15.10;10.60;;;14.30;99.90;;;;;;7371692;19;20736;-63
2023/04/28 10:48:28;;;;;;;12.77;10.70;;;14.30;99.90;;;;;;7370798;19;20089;-62
2023/04/28 10:51:08;;;;;;;11.25;10.00;;;14.40;99.90;;;;;;7369730;19;20029;-62
2023/04/28 10:53:43;;;;;;;11.60;9.80;;;14.40;99.90;;;;;;7369841;19;20050;-64
2023/04/28 10:56:10;;;;;;;12.25;9.88;;;14.60;99.90;;;;;;7358949;19;20019;-62
2023/04/28 10:58:41;;;;;;;13.82;10.93;;;14.60;99.90;;;;;;7356190;19;20614;-61
2023/04/28 11:01:20;;;;;;;12.38;11.07;;;14.70;99.90;;;;;;7368672;19;20022;-62
2023/04/28 11:03:50;;;;;;;11.38;10.27;;;14.70;99.90;;;;;;7370634;19;20039;-64
2023/04/28 11:06:24;;;;;;;12.20;10.25;;;14.60;99.90;;;;;;7370955;19;20019;-64
2023/04/28 11:08:56;;;;;;;13.20;11.23;;;14.50;99.90;;;;;;7371217;19;20390;-62
2023/04/28 11:11:27;;;;;;;12.15;10.82;;;14.40;99.90;;;;;;7365009;19;20676;-67
2023/04/28 11:14:19;;;;;;;13.17;11.07;;;14.30;99.90;;;;;;7369014;19;20019;-62
2023/04/28 11:17:07;;;;;;;12.30;10.30;;;14.30;99.90;;;;;;7358103;19;20021;-62
2023/04/28 11:19:34;;;;;;;11.90;9.65;;;14.30;99.90;;;;;;7365582;19;20077;-62
2023/04/28 11:22:02;;;;;;;13.65;10.40;;;14.30;99.90;;;;;;7370200;19;20030;-61
2023/04/28 11:24:29;;;;;;;11.82;10.63;;;14.30;99.90;;;;;;7365518;19;20045;-62
2023/04/28 11:26:57;;;;;;;11.73;10.02;;;14.20;99.90;;;;;;7369756;19;20025;-62
2023/04/28 11:29:50;;;;;;;11.80;10.68;;;14.30;99.90;;;;;;7365373;19;20015;-62
2023/04/28 11:32:24;;;;;;;11.43;9.25;;;14.30;99.90;;;;;;7360955;19;20022;-62
2023/04/28 11:34:51;;;;;;;12.35;9.13;;;14.20;99.90;;;;;;7365436;19;20019;-61
2023/04/28 11:37:19;;;;;;;11.27;9.70;;;14.20;99.90;;;;;;7370793;19;20023;-62
2023/04/28 11:39:49;;;;;;;13.05;10.40;;;14.30;99.90;;;;;;7368994;19;20473;-62
2023/04/28 11:42:16;;;;;;;14.48;10.15;;;14.20;99.90;;;;;;7369779;19;20905;-62
2023/04/28 11:44:52;;;;;;;10.90;9.80;;;14.40;99.90;;;;;;7369309;19;20630;-64
2023/04/28 11:47:30;;;;;;;13.13;9.18;;;14.40;99.90;;;;;;7371842;19;20452;-64
2023/04/28 11:49:56;;;;;;;13.10;10.40;;;14.50;99.90;;;;;;7370543;19;20026;-64
2023/04/28 11:52:26;;;;;;;10.02;8.65;;;14.60;99.90;;;;;;7368165;19;20014;-63
2023/04/28 11:55:00;;;;;;;10.85;8.10;;;14.50;99.90;;;;;;7370219;19;20018;-64
2023/04/28 11:57:27;;;;;;;11.20;8.80;;;14.60;99.90;;;;;;7366836;19;20848;-62
2023/04/28 12:00:10;;;;;;;9.65;8.43;;;14.40;99.90;;;;;;7345844;19;20509;-61
2023/04/28 12:02:38;;;;;;;9.35;8.45;;;14.40;99.90;;;;;;7365767;19;20043;-65
2023/04/28 12:05:07;;;;;;;11.10;8.18;;;14.30;99.90;;;;;;7359986;19;20102;-64
2023/04/28 12:07:42;;;;;;;10.35;8.10;;;14.20;99.90;;;;;;7365598;19;20660;-62
2023/04/28 12:10:17;;;;;;;10.40;8.88;;;14.20;99.90;;;;;;7367750;19;20031;-62
2023/04/28 12:12:46;;;;;;;10.60;9.00;;;14.20;99.90;;;;;;7367029;19;20054;-64
2023/04/28 12:15:15;;;;;;;11.23;9.90;;;14.20;99.90;;;;;;7363166;19;20035;-62
2023/04/28 12:17:44;;;;;;;14.52;11.40;;;14.20;99.90;;;;;;7366577;19;20086;-62
2023/04/28 12:20:31;;;;;;;12.18;10.70;;;14.30;99.90;;;;;;7363875;19;20463;-62
2023/04/28 12:22:58;;;;;;;14.18;10.93;;;14.50;99.90;;;;;;7367164;19;20861;-62
2023/04/28 12:25:24;;;;;;;13.65;12.25;;;14.50;99.90;;;;;;7364495;19;20037;-63
2023/04/28 12:28:06;;;;;;;13.43;11.88;;;14.50;99.90;;;;;;7366109;19;20027;-64
2023/04/28 12:30:35;;;;;;;13.43;12.18;;;14.50;99.90;;;;;;7367391;19;20018;-64
2023/04/28 12:33:01;;;;;;;15.27;12.05;;;14.40;99.90;;;;;;7365076;19;20014;-65
2023/04/28 12:35:28;;;;;;;15.27;13.98;;;14.40;99.90;;;;;;7368244;19;20034;-65
2023/04/28 12:37:57;;;;;;;16.65;13.38;;;14.30;99.90;;;;;;7366775;19;20015;-65
2023/04/28 12:40:23;;;;;;;14.30;12.88;;;14.20;99.90;;;;;;7366569;19;20058;-66
2023/04/28 12:42:50;;;;;;;14.43;12.23;;;14.20;99.90;;;;;;7366642;19;20022;-66